Time;durP1;ratioP1;P1;durP2;ratioP2;P2;SDS_P1;SDS_P2;PMS_P1;PMS_P2;Temp;Humidity;BMP_temperature;BMP_pressure;BME280_temperature;BME280_humidity;BME280_pressure;Samples;Min_cycle;Max_cycle;Signal;HPM_P1;HPM_P2
2021/01/28 00:02:21;;;;;;;38.00;10.77;;;12.00;99.90;;;;;;4972991;28;20238;-86
2021/01/28 00:04:48;;;;;;;36.50;9.43;;;12.00;99.90;;;;;;4972629;28;20217;-86
2021/01/28 00:07:15;;;;;;;25.43;8.53;;;12.00;99.90;;;;;;4973190;28;20210;-86
2021/01/28 00:09:41;;;;;;;28.90;9.03;;;12.10;99.90;;;;;;4972833;28;20579;-86
2021/01/28 00:12:08;;;;;;;22.03;8.10;;;12.10;99.90;;;;;;4972567;28;20225;-86
2021/01/28 00:14:35;;;;;;;21.67;8.03;;;12.10;99.90;;;;;;4972765;28;20202;-87
2021/01/28 00:17:01;;;;;;;25.07;7.80;;;12.10;99.90;;;;;;4971931;28;20606;-86
2021/01/28 00:19:28;;;;;;;23.30;7.17;;;12.00;99.90;;;;;;4980077;28;20652;-86
2021/01/28 00:21:54;;;;;;;19.90;6.63;;;12.10;99.90;;;;;;4972491;28;20190;-85
2021/01/28 00:24:22;;;;;;;26.37;6.27;;;12.10;99.90;;;;;;4972015;28;20198;-86
2021/01/28 00:26:49;;;;;;;21.53;6.23;;;12.10;99.90;;;;;;4972307;28;20588;-86
2021/01/28 00:29:15;;;;;;;18.17;5.83;;;12.10;99.90;;;;;;4972116;28;20749;-86
2021/01/28 00:31:42;;;;;;;17.53;5.90;;;12.00;99.90;;;;;;4971443;28;20195;-86
2021/01/28 00:34:08;;;;;;;23.17;5.70;;;12.00;99.90;;;;;;4971574;28;20233;-85
2021/01/28 00:36:35;;;;;;;17.83;4.40;;;12.00;99.90;;;;;;4972169;28;20199;-86
2021/01/28 00:39:02;;;;;;;19.03;4.80;;;12.00;99.90;;;;;;4971984;28;20667;-86
2021/01/28 00:41:30;;;;;;;14.63;4.47;;;12.00;99.90;;;;;;4972012;28;20207;-87
2021/01/28 00:43:56;;;;;;;13.23;4.03;;;12.00;99.90;;;;;;4972233;28;20247;-85
2021/01/28 00:46:23;;;;;;;21.57;5.30;;;12.00;99.90;;;;;;4971804;28;20217;-86
2021/01/28 00:48:50;;;;;;;12.80;4.37;;;12.00;99.90;;;;;;4972157;28;20206;-86
2021/01/28 00:51:17;;;;;;;16.97;4.83;;;12.00;99.90;;;;;;4971813;28;20198;-86
2021/01/28 00:53:43;;;;;;;12.63;3.97;;;12.00;99.90;;;;;;4971631;28;20256;-85
2021/01/28 00:56:10;;;;;;;15.30;4.30;;;12.00;99.90;;;;;;4971955;28;20211;-86
2021/01/28 00:58:37;;;;;;;10.30;3.60;;;11.90;99.90;;;;;;4972359;28;20206;-86
2021/01/28 01:01:04;;;;;;;11.23;3.73;;;11.90;99.90;;;;;;4971484;28;20668;-86
2021/01/28 01:03:31;;;;;;;12.43;3.43;;;11.90;99.90;;;;;;4971526;28;20213;-87
2021/01/28 01:05:57;;;;;;;13.87;3.50;;;11.90;99.90;;;;;;4972320;28;20308;-86
2021/01/28 01:08:26;;;;;;;10.33;3.20;;;11.90;99.90;;;;;;4971288;28;20233;-86
2021/01/28 01:10:55;;;;;;;14.77;4.07;;;11.90;99.90;;;;;;4971511;28;20199;-86
2021/01/28 01:13:23;;;;;;;9.13;3.00;;;11.90;99.90;;;;;;4971673;28;20222;-86
2021/01/28 01:15:51;;;;;;;7.30;2.67;;;11.90;99.90;;;;;;4972387;28;20233;-86
2021/01/28 01:18:21;;;;;;;11.00;3.40;;;11.90;99.90;;;;;;4985870;28;20292;-86
2021/01/28 01:20:48;;;;;;;8.90;2.50;;;11.90;99.90;;;;;;4971615;28;20576;-86
2021/01/28 01:23:15;;;;;;;7.40;2.40;;;11.90;99.90;;;;;;4970807;28;20682;-86
2021/01/28 01:25:41;;;;;;;9.47;2.83;;;11.90;99.90;;;;;;4971440;28;20276;-86
2021/01/28 01:28:08;;;;;;;9.97;2.43;;;11.90;99.90;;;;;;4971698;28;20203;-86
2021/01/28 01:30:35;;;;;;;10.40;2.37;;;11.90;99.90;;;;;;4971273;28;20206;-86
2021/01/28 01:33:02;;;;;;;12.60;2.47;;;11.90;99.90;;;;;;4970483;28;20250;-86
2021/01/28 01:35:29;;;;;;;14.27;2.23;;;11.90;99.90;;;;;;4970870;28;20207;-86
2021/01/28 01:37:57;;;;;;;8.97;2.17;;;11.90;99.90;;;;;;4971557;28;20195;-86
2021/01/28 01:40:27;;;;;;;7.77;2.23;;;11.90;99.90;;;;;;4971728;28;20264;-86
2021/01/28 01:42:55;;;;;;;8.37;1.80;;;12.00;99.90;;;;;;4971405;28;20260;-86
2021/01/28 01:45:28;;;;;;;9.60;2.40;;;11.90;99.90;;;;;;4970889;28;20667;-86
2021/01/28 01:48:01;;;;;;;7.20;2.53;;;11.90;99.90;;;;;;4970764;28;20237;-86
2021/01/28 01:51:00;;;;;;;4.40;2.20;;;12.00;99.90;;;;;;4971114;28;20256;-86
2021/01/28 01:53:30;;;;;;;8.87;2.63;;;11.90;99.90;;;;;;4970379;28;20234;-86
2021/01/28 01:56:01;;;;;;;11.00;3.27;;;12.00;99.90;;;;;;4971310;28;20725;-86
2021/01/28 01:58:45;;;;;;;10.20;3.20;;;11.90;99.90;;;;;;4971174;28;20210;-86
2021/01/28 02:01:13;;;;;;;8.53;3.00;;;11.90;99.90;;;;;;4970822;28;20201;-86
2021/01/28 02:03:42;;;;;;;8.53;2.87;;;12.00;99.90;;;;;;4970565;28;20199;-86
2021/01/28 02:06:18;;;;;;;11.10;3.10;;;12.00;99.90;;;;;;4951430;28;20275;-87
2021/01/28 02:08:47;;;;;;;7.17;2.30;;;12.00;99.90;;;;;;4952205;28;20226;-86
2021/01/28 02:11:14;;;;;;;7.47;2.97;;;12.00;99.90;;;;;;4964278;28;20630;-86
2021/01/28 02:13:42;;;;;;;11.27;2.80;;;12.00;99.90;;;;;;4970421;28;20222;-87
2021/01/28 02:16:12;;;;;;;6.57;3.10;;;11.90;99.90;;;;;;4970624;28;20217;-86
2021/01/28 02:18:39;;;;;;;6.47;3.10;;;12.00;99.90;;;;;;4976237;28;20733;-86
2021/01/28 02:21:21;;;;;;;11.43;3.90;;;11.90;99.90;;;;;;4970666;28;20203;-86
2021/01/28 02:24:17;;;;;;;11.17;3.90;;;12.00;99.90;;;;;;4951663;28;20199;-86
2021/01/28 02:26:47;;;;;;;13.20;3.80;;;12.00;99.90;;;;;;4958402;28;20227;-86
2021/01/28 02:29:14;;;;;;;11.23;3.70;;;12.00;99.90;;;;;;4970450;28;20234;-86
2021/01/28 02:31:45;;;;;;;12.30;3.27;;;12.00;99.90;;;;;;4969912;28;20672;-86
2021/01/28 02:34:11;;;;;;;9.47;2.53;;;12.00;99.90;;;;;;4970620;28;20234;-85
2021/01/28 02:36:40;;;;;;;8.10;2.63;;;12.00;99.90;;;;;;4970342;28;20915;-86
2021/01/28 02:39:10;;;;;;;7.90;2.00;;;12.00;99.90;;;;;;4970384;28;20202;-85
2021/01/28 02:41:37;;;;;;;4.87;1.77;;;12.00;99.90;;;;;;4970029;28;20238;-86
2021/01/28 02:44:05;;;;;;;6.77;1.60;;;12.00;99.90;;;;;;4969933;28;20202;-86
2021/01/28 02:46:31;;;;;;;5.23;1.70;;;12.00;99.90;;;;;;4970423;28;20222;-85
2021/01/28 02:48:58;;;;;;;4.40;1.43;;;12.00;99.90;;;;;;4969775;28;20195;-86
2021/01/28 02:51:25;;;;;;;3.40;1.37;;;12.00;99.90;;;;;;4970472;28;20198;-86
2021/01/28 02:53:53;;;;;;;6.67;1.70;;;12.10;99.90;;;;;;4970011;28;20222;-86
2021/01/28 02:56:20;;;;;;;5.03;1.53;;;12.10;99.90;;;;;;4970336;28;20664;-86
2021/01/28 02:58:48;;;;;;;3.67;1.10;;;12.10;99.90;;;;;;4972272;28;20671;-86
2021/01/28 03:01:15;;;;;;;4.93;1.40;;;12.10;99.90;;;;;;4973768;28;20664;-86
2021/01/28 03:03:42;;;;;;;2.97;1.20;;;12.10;99.90;;;;;;4972833;28;20632;-85
2021/01/28 03:06:10;;;;;;;7.90;1.50;;;12.10;99.90;;;;;;4973712;28;20260;-85
2021/01/28 03:08:37;;;;;;;2.20;0.97;;;12.10;99.90;;;;;;4972901;28;20198;-85
2021/01/28 03:11:04;;;;;;;3.93;1.20;;;12.10;99.90;;;;;;4973792;28;20280;-85
2021/01/28 03:13:30;;;;;;;5.73;1.37;;;12.10;99.90;;;;;;4971851;28;20214;-85
2021/01/28 03:15:57;;;;;;;4.10;1.40;;;12.10;99.90;;;;;;4973226;28;20226;-85
2021/01/28 03:18:26;;;;;;;3.13;1.13;;;12.10;99.90;;;;;;5002668;28;20266;-85
2021/01/28 03:20:53;;;;;;;2.67;1.00;;;12.10;99.90;;;;;;5075577;28;20291;-85
2021/01/28 03:23:20;;;;;;;2.50;1.30;;;12.10;99.90;;;;;;4989686;28;20252;-86
2021/01/28 03:25:47;;;;;;;5.47;1.50;;;12.10;99.90;;;;;;4972583;28;20248;-85
2021/01/28 03:28:13;;;;;;;3.90;1.40;;;12.10;99.90;;;;;;4958897;28;20226;-86
2021/01/28 03:30:43;;;;;;;2.43;1.30;;;12.10;99.90;;;;;;4973393;28;20687;-86
2021/01/28 03:33:11;;;;;;;3.30;1.40;;;12.10;99.90;;;;;;4972142;28;20230;-86
2021/01/28 03:35:39;;;;;;;6.20;1.37;;;12.10;99.90;;;;;;4973260;28;20248;-86
2021/01/28 03:38:07;;;;;;;4.03;1.47;;;12.10;99.90;;;;;;4972821;28;20209;-86
2021/01/28 03:40:37;;;;;;;2.33;1.27;;;12.10;99.90;;;;;;4973247;28;20716;-86
2021/01/28 03:43:05;;;;;;;4.10;1.10;;;12.10;99.90;;;;;;4973415;28;20559;-86
2021/01/28 03:45:31;;;;;;;3.63;1.30;;;12.10;99.90;;;;;;4972757;28;20234;-86
2021/01/28 03:47:59;;;;;;;3.10;1.30;;;12.10;99.90;;;;;;4973132;28;20206;-86
2021/01/28 03:50:29;;;;;;;1.37;0.80;;;12.10;99.90;;;;;;4973442;28;20233;-86
2021/01/28 03:52:57;;;;;;;1.97;0.77;;;12.10;99.90;;;;;;4973072;28;20615;-85
2021/01/28 03:55:23;;;;;;;2.77;1.03;;;12.10;99.90;;;;;;4972820;28;20198;-86
2021/01/28 03:57:52;;;;;;;2.50;0.90;;;12.10;99.90;;;;;;4972659;28;20210;-85
2021/01/28 04:00:21;;;;;;;2.17;0.70;;;12.10;99.90;;;;;;4973229;28;20260;-85
2021/01/28 04:02:48;;;;;;;1.33;0.87;;;12.10;99.90;;;;;;4972936;28;20707;-86
2021/01/28 04:05:15;;;;;;;1.30;0.60;;;12.10;99.90;;;;;;4972595;28;20278;-86
2021/01/28 04:07:42;;;;;;;3.53;0.90;;;12.10;99.90;;;;;;4972422;28;20195;-86
2021/01/28 04:10:13;;;;;;;3.40;0.83;;;12.10;99.90;;;;;;4971266;28;20191;-85
2021/01/28 04:12:41;;;;;;;2.37;0.90;;;12.10;99.90;;;;;;4972766;28;20715;-85
2021/01/28 04:15:10;;;;;;;3.70;1.00;;;12.10;99.90;;;;;;4972621;28;20656;-86
2021/01/28 04:17:37;;;;;;;2.20;1.23;;;12.10;99.90;;;;;;4972961;28;20251;-85
2021/01/28 04:20:06;;;;;;;2.33;1.00;;;12.10;99.90;;;;;;4972406;28;20238;-85
2021/01/28 04:22:33;;;;;;;1.27;0.73;;;12.10;99.90;;;;;;4972659;28;20655;-86
2021/01/28 04:24:59;;;;;;;1.93;0.60;;;12.10;99.90;;;;;;4972628;28;20206;-85
2021/01/28 04:27:27;;;;;;;2.00;0.50;;;12.10;99.90;;;;;;4972044;28;20698;-85
2021/01/28 04:29:53;;;;;;;1.73;0.60;;;12.10;99.90;;;;;;4972477;28;20268;-85
2021/01/28 04:32:20;;;;;;;1.70;0.60;;;12.10;99.90;;;;;;4972116;28;20249;-85
2021/01/28 04:34:46;;;;;;;1.63;0.57;;;12.10;99.90;;;;;;4971986;28;20194;-85
2021/01/28 04:37:12;;;;;;;1.17;0.40;;;12.10;99.90;;;;;;4972414;28;20248;-86
2021/01/28 04:39:41;;;;;;;1.17;0.50;;;12.20;99.90;;;;;;4972445;28;20692;-85
2021/01/28 04:42:12;;;;;;;1.97;0.50;;;12.20;99.90;;;;;;4972440;28;20210;-85
2021/01/28 04:44:39;;;;;;;1.13;0.40;;;12.20;99.90;;;;;;4972177;28;20567;-85
2021/01/28 04:47:13;;;;;;;2.00;0.67;;;12.20;99.90;;;;;;4972386;28;20230;-84
2021/01/28 04:49:39;;;;;;;3.23;0.57;;;12.20;99.90;;;;;;4972347;28;20230;-84
2021/01/28 04:52:10;;;;;;;3.67;0.80;;;12.20;99.90;;;;;;4972274;28;20194;-85
2021/01/28 04:54:37;;;;;;;2.03;0.80;;;12.30;99.90;;;;;;4971966;28;20632;-85
2021/01/28 04:57:09;;;;;;;1.77;0.60;;;12.30;99.90;;;;;;4972094;28;20211;-85
2021/01/28 04:59:42;;;;;;;1.50;0.60;;;12.30;99.90;;;;;;4972123;28;20256;-85
2021/01/28 05:02:14;;;;;;;2.23;0.70;;;12.30;99.90;;;;;;4971803;28;20727;-85
2021/01/28 05:04:45;;;;;;;2.40;0.53;;;12.30;99.90;;;;;;4971390;28;20289;-85
2021/01/28 05:07:14;;;;;;;1.77;0.60;;;12.30;99.90;;;;;;4971916;28;20288;-85
2021/01/28 05:09:41;;;;;;;2.20;0.53;;;12.30;99.90;;;;;;4971119;28;20255;-85
2021/01/28 05:12:07;;;;;;;1.87;0.63;;;12.40;99.90;;;;;;4971365;28;20226;-85
2021/01/28 05:14:35;;;;;;;1.17;0.60;;;12.40;99.90;;;;;;4971297;28;20337;-85
2021/01/28 05:17:05;;;;;;;1.57;0.50;;;12.40;99.90;;;;;;4971578;28;20226;-85
2021/01/28 05:19:38;;;;;;;1.00;0.70;;;12.40;99.90;;;;;;4971240;28;20290;-85
2021/01/28 05:22:15;;;;;;;1.87;0.50;;;12.40;99.90;;;;;;4971560;28;20199;-85
2021/01/28 05:24:45;;;;;;;3.27;0.70;;;12.40;99.90;;;;;;4971283;28;20287;-85
2021/01/28 05:27:16;;;;;;;1.90;0.60;;;12.40;99.90;;;;;;4971955;28;20603;-85
2021/01/28 05:29:44;;;;;;;2.30;0.60;;;12.40;99.90;;;;;;4971563;28;20234;-85
2021/01/28 05:32:32;;;;;;;3.43;0.60;;;12.40;99.90;;;;;;4971206;28;20702;-85
2021/01/28 05:35:14;;;;;;;2.53;0.67;;;12.40;99.90;;;;;;4967044;28;20198;-85
2021/01/28 05:37:41;;;;;;;2.57;0.70;;;12.40;99.90;;;;;;4971339;28;20691;-85
2021/01/28 05:40:14;;;;;;;2.17;0.90;;;12.40;99.90;;;;;;4971208;28;20213;-85
2021/01/28 05:42:42;;;;;;;2.33;0.77;;;12.40;99.90;;;;;;4970870;28;20248;-85
2021/01/28 05:45:24;;;;;;;5.63;1.07;;;12.50;99.90;;;;;;4971350;28;20238;-85
2021/01/28 05:47:52;;;;;;;3.23;1.00;;;12.50;99.90;;;;;;4971395;28;20239;-85
2021/01/28 05:50:26;;;;;;;3.50;1.47;;;12.50;99.90;;;;;;4971230;28;20207;-86
2021/01/28 05:53:08;;;;;;;3.60;1.30;;;12.50;99.90;;;;;;4970721;28;20257;-85
2021/01/28 05:55:34;;;;;;;4.13;2.10;;;12.50;99.90;;;;;;4970694;28;20202;-85
2021/01/28 05:58:05;;;;;;;2.90;1.60;;;12.50;99.90;;;;;;4970942;28;20237;-85
2021/01/28 06:00:38;;;;;;;6.20;2.93;;;12.50;99.90;;;;;;4970845;28;20241;-85
2021/01/28 06:03:59;;;;;;;10.57;2.57;;;12.50;99.90;;;;;;4970960;28;20245;-85
2021/01/28 06:07:04;;;;;;;5.03;1.40;;;12.50;99.90;;;;;;4949661;28;20239;-82
2021/01/28 06:09:56;;;;;;;3.33;1.50;;;12.50;99.90;;;;;;4949163;28;20995;-83
2021/01/28 06:12:46;;;;;;;1.80;1.10;;;12.50;99.90;;;;;;4948878;28;20196;-82
2021/01/28 06:15:47;;;;;;;2.50;0.80;;;12.50;99.90;;;;;;4949236;28;20641;-82
2021/01/28 06:18:56;;;;;;;4.90;1.13;;;12.50;99.90;;;;;;4892130;29;20817;-81
2021/01/28 06:21:54;;;;;;;3.67;1.60;;;12.50;99.90;;;;;;4891909;29;20240;-83
2021/01/28 06:24:41;;;;;;;3.30;1.03;;;12.50;99.90;;;;;;4892467;29;20293;-84
2021/01/28 06:27:46;;;;;;;1.47;1.10;;;12.50;99.90;;;;;;4890491;28;20244;-83
2021/01/28 06:30:22;;;;;;;2.97;1.93;;;12.50;99.90;;;;;;4874357;28;20293;-80
2021/01/28 06:33:21;;;;;;;4.33;1.50;;;12.50;99.90;;;;;;4873024;29;20782;-84
2021/01/28 06:36:21;;;;;;;2.83;1.40;;;12.50;99.90;;;;;;4874850;29;20201;-84
2021/01/28 06:39:02;;;;;;;3.77;1.30;;;12.50;99.90;;;;;;4888438;29;20704;-84
2021/01/28 06:41:32;;;;;;;2.77;1.10;;;12.50;99.90;;;;;;4907613;28;20229;-82
2021/01/28 06:44:04;;;;;;;2.27;1.10;;;12.60;99.90;;;;;;4970916;28;20230;-84
2021/01/28 06:46:46;;;;;;;4.87;1.60;;;12.60;99.90;;;;;;4906119;28;20244;-83
2021/01/28 06:49:37;;;;;;;2.37;1.20;;;12.60;99.90;;;;;;4872998;29;20225;-85
2021/01/28 06:52:12;;;;;;;2.17;1.30;;;12.60;99.90;;;;;;4895032;29;20626;-84
2021/01/28 06:54:54;;;;;;;1.83;1.20;;;12.60;99.90;;;;;;4929082;28;20300;-83
2021/01/28 06:57:32;;;;;;;3.73;1.20;;;12.60;99.90;;;;;;4929259;29;20231;-83
2021/01/28 07:00:07;;;;;;;2.33;1.30;;;12.60;99.90;;;;;;4929213;28;20286;-83
2021/01/28 07:02:57;;;;;;;3.00;1.30;;;12.60;99.90;;;;;;4929583;29;20207;-83
2021/01/28 07:05:36;;;;;;;1.80;1.20;;;12.60;99.90;;;;;;4917095;28;20239;-83
2021/01/28 07:08:10;;;;;;;4.00;1.10;;;12.60;99.90;;;;;;4929260;28;20215;-83
2021/01/28 07:10:39;;;;;;;5.43;1.50;;;12.60;99.90;;;;;;4927263;29;20304;-83
2021/01/28 07:13:09;;;;;;;5.50;1.40;;;12.60;99.90;;;;;;4928713;28;20735;-83
2021/01/28 07:15:36;;;;;;;3.63;1.80;;;12.60;99.90;;;;;;4969271;28;20234;-84
2021/01/28 07:18:06;;;;;;;4.77;1.90;;;12.60;99.90;;;;;;4974060;28;20317;-84
2021/01/28 07:20:35;;;;;;;4.57;2.00;;;12.60;99.90;;;;;;4965874;28;20199;-84
2021/01/28 07:23:24;;;;;;;2.93;2.00;;;12.60;99.90;;;;;;4969042;28;20621;-85
2021/01/28 07:25:53;;;;;;;3.53;2.27;;;12.60;99.90;;;;;;4965045;28;20230;-84
2021/01/28 07:28:28;;;;;;;3.33;1.80;;;12.60;99.90;;;;;;4969323;28;20199;-85
2021/01/28 07:31:24;;;;;;;4.03;1.60;;;12.60;99.90;;;;;;4968751;28;20292;-85
2021/01/28 07:34:06;;;;;;;3.43;1.27;;;12.60;99.90;;;;;;4967579;28;20246;-84
2021/01/28 07:36:40;;;;;;;2.70;1.27;;;12.60;99.90;;;;;;4965228;28;20267;-84
2021/01/28 07:39:34;;;;;;;1.70;1.27;;;12.60;99.90;;;;;;4975233;28;20230;-84
2021/01/28 07:42:03;;;;;;;4.40;1.40;;;12.60;99.90;;;;;;4978692;28;20211;-84
2021/01/28 07:44:41;;;;;;;4.10;1.50;;;12.60;99.90;;;;;;4971121;28;20233;-85
2021/01/28 07:47:35;;;;;;;2.90;1.60;;;12.60;99.90;;;;;;4969097;28;20260;-85
2021/01/28 07:50:17;;;;;;;3.87;1.73;;;12.60;99.90;;;;;;4945589;28;20210;-85
2021/01/28 07:52:46;;;;;;;2.27;1.30;;;12.60;99.90;;;;;;4971640;28;20230;-85
2021/01/28 07:55:39;;;;;;;2.13;0.97;;;12.60;99.90;;;;;;4971209;28;20289;-85
2021/01/28 07:58:20;;;;;;;2.87;1.40;;;12.60;99.90;;;;;;4965765;28;20563;-85
2021/01/28 08:00:49;;;;;;;2.27;1.23;;;12.60;99.90;;;;;;4971711;28;20230;-83
2021/01/28 08:03:25;;;;;;;3.20;1.30;;;12.60;99.90;;;;;;4960237;28;20255;-84
2021/01/28 08:05:55;;;;;;;2.67;1.00;;;12.60;99.90;;;;;;4967589;28;20234;-83
2021/01/28 08:08:22;;;;;;;1.93;1.20;;;12.60;99.90;;;;;;4975772;28;20202;-84
2021/01/28 08:10:49;;;;;;;3.97;1.37;;;12.70;99.90;;;;;;4971545;28;20257;-85
2021/01/28 08:13:24;;;;;;;3.50;1.40;;;12.70;99.90;;;;;;4972093;28;20262;-84
2021/01/28 08:15:59;;;;;;;3.27;1.80;;;12.70;99.90;;;;;;4971981;28;20236;-84
2021/01/28 08:18:28;;;;;;;3.77;2.13;;;12.70;99.90;;;;;;4972260;28;20705;-84
2021/01/28 08:21:06;;;;;;;4.80;1.90;;;12.70;99.90;;;;;;4971805;28;20718;-84
2021/01/28 08:23:34;;;;;;;3.83;1.73;;;12.70;99.90;;;;;;4965646;28;20589;-84
2021/01/28 08:26:03;;;;;;;3.63;2.40;;;12.70;99.90;;;;;;4972469;28;20283;-84
2021/01/28 08:28:32;;;;;;;3.97;2.20;;;12.80;99.90;;;;;;4972152;28;20226;-87
2021/01/28 08:31:03;;;;;;;3.33;2.10;;;12.80;99.90;;;;;;4973953;28;20222;-87
2021/01/28 08:33:30;;;;;;;4.57;1.83;;;12.80;99.90;;;;;;4971900;28;20250;-83
2021/01/28 08:36:01;;;;;;;6.63;1.77;;;12.80;99.90;;;;;;4971057;28;20249;-84
2021/01/28 08:38:30;;;;;;;3.00;1.40;;;12.80;99.90;;;;;;4969397;28;20281;-84
2021/01/28 08:41:02;;;;;;;2.50;1.70;;;12.90;99.90;;;;;;4970735;28;20233;-83
2021/01/28 08:43:29;;;;;;;2.60;1.50;;;12.90;99.90;;;;;;4967813;28;20651;-83
2021/01/28 08:46:12;;;;;;;3.20;1.40;;;13.00;99.90;;;;;;4971685;28;20679;-83
2021/01/28 08:48:39;;;;;;;4.63;1.60;;;13.00;99.90;;;;;;4971932;28;20221;-83
2021/01/28 08:51:09;;;;;;;2.30;1.43;;;12.90;99.90;;;;;;4970764;28;20237;-83
2021/01/28 08:53:37;;;;;;;4.17;1.60;;;12.90;99.90;;;;;;4971051;28;20280;-85
2021/01/28 08:56:08;;;;;;;2.10;1.20;;;13.00;99.90;;;;;;4970431;28;20207;-87
2021/01/28 08:58:40;;;;;;;2.03;1.63;;;13.00;99.90;;;;;;4969333;28;20667;-84
2021/01/28 09:01:10;;;;;;;2.47;1.30;;;13.00;99.90;;;;;;4970745;28;20226;-84
2021/01/28 09:03:48;;;;;;;4.77;1.80;;;13.00;99.90;;;;;;4971158;28;20237;-85
2021/01/28 09:06:15;;;;;;;3.17;1.50;;;13.00;99.90;;;;;;4968167;28;20226;-85
2021/01/28 09:08:43;;;;;;;3.33;1.47;;;13.10;99.90;;;;;;4971274;28;20203;-83
2021/01/28 09:11:17;;;;;;;5.57;2.10;;;13.10;99.90;;;;;;4971277;28;20555;-85
2021/01/28 09:14:04;;;;;;;4.00;1.80;;;13.20;99.90;;;;;;4979755;28;20667;-80
2021/01/28 09:16:32;;;;;;;5.37;1.80;;;13.20;99.90;;;;;;4970274;28;20294;-78
2021/01/28 09:19:13;;;;;;;3.17;1.80;;;13.30;99.90;;;;;;4932501;29;20243;-78
2021/01/28 09:21:42;;;;;;;3.50;1.80;;;13.30;99.90;;;;;;4932139;28;20254;-79
2021/01/28 09:24:19;;;;;;;4.63;1.80;;;13.30;99.90;;;;;;4930581;28;20288;-78
2021/01/28 09:26:46;;;;;;;4.13;2.10;;;13.20;99.90;;;;;;4930819;28;20207;-78
2021/01/28 09:29:17;;;;;;;3.37;1.93;;;13.20;99.90;;;;;;4931687;28;20231;-78
2021/01/28 09:31:44;;;;;;;5.43;1.90;;;13.20;99.90;;;;;;4931341;28;20303;-78
2021/01/28 09:34:13;;;;;;;4.43;1.80;;;13.20;99.90;;;;;;4930876;29;20308;-79
2021/01/28 09:36:41;;;;;;;2.93;1.87;;;13.20;99.90;;;;;;4991453;28;20232;-78
2021/01/28 09:39:27;;;;;;;3.30;1.90;;;13.20;99.90;;;;;;4939345;28;20293;-78
2021/01/28 09:41:54;;;;;;;3.07;1.90;;;13.10;99.90;;;;;;4932379;28;20297;-78
2021/01/28 09:44:31;;;;;;;2.70;2.10;;;13.20;99.90;;;;;;4931393;29;20681;-77
2021/01/28 09:47:17;;;;;;;4.07;2.33;;;13.20;99.90;;;;;;4932439;28;20222;-79
2021/01/28 09:49:45;;;;;;;4.00;2.00;;;13.20;99.90;;;;;;4932256;28;20239;-78
2021/01/28 09:52:19;;;;;;;2.53;1.90;;;13.30;99.90;;;;;;4932190;29;20904;-78
2021/01/28 09:54:48;;;;;;;5.83;2.30;;;13.30;99.90;;;;;;4921286;29;20266;-78
2021/01/28 09:57:15;;;;;;;4.00;1.70;;;13.30;99.90;;;;;;4932495;28;20287;-78
2021/01/28 09:59:41;;;;;;;3.03;1.60;;;13.30;99.90;;;;;;4931733;28;20235;-78
2021/01/28 10:02:12;;;;;;;3.33;1.87;;;13.30;99.90;;;;;;4932536;28;20586;-78
2021/01/28 10:04:39;;;;;;;3.43;1.50;;;13.30;99.90;;;;;;4931257;28;20696;-78
2021/01/28 10:07:05;;;;;;;1.93;1.20;;;13.30;99.90;;;;;;4931992;28;20290;-78
2021/01/28 10:09:32;;;;;;;2.33;1.33;;;13.30;99.90;;;;;;4931404;28;20750;-77
2021/01/28 10:11:58;;;;;;;3.27;2.07;;;13.30;99.90;;;;;;4938007;28;20287;-77
2021/01/28 10:14:24;;;;;;;2.00;1.73;;;13.30;99.90;;;;;;4940082;28;20323;-78
2021/01/28 10:16:53;;;;;;;3.37;1.80;;;13.30;99.90;;;;;;4936834;28;20235;-77
2021/01/28 10:19:20;;;;;;;4.50;2.13;;;13.30;99.90;;;;;;4969792;28;20238;-78
2021/01/28 10:21:47;;;;;;;2.43;1.40;;;13.30;99.90;;;;;;4970733;28;20274;-77
2021/01/28 10:24:13;;;;;;;2.13;1.43;;;13.30;99.90;;;;;;4970107;28;20237;-77
2021/01/28 10:26:40;;;;;;;2.77;1.70;;;13.40;99.90;;;;;;4969797;28;20198;-78
2021/01/28 10:29:06;;;;;;;4.27;1.40;;;13.40;99.90;;;;;;4970137;28;20289;-78
2021/01/28 10:31:33;;;;;;;2.50;1.60;;;13.40;99.90;;;;;;4969009;28;20278;-77
2021/01/28 10:34:00;;;;;;;2.77;1.50;;;13.50;99.90;;;;;;4959926;28;20726;-77
2021/01/28 10:36:27;;;;;;;1.97;1.30;;;13.70;99.90;;;;;;4970214;28;20279;-78
2021/01/28 10:38:54;;;;;;;3.83;1.27;;;13.90;99.90;;;;;;4969937;28;20234;-78
2021/01/28 10:41:20;;;;;;;2.70;1.17;;;14.00;99.90;;;;;;4970473;28;20285;-78
2021/01/28 10:43:46;;;;;;;3.60;1.20;;;14.20;99.90;;;;;;4969555;28;20234;-78
2021/01/28 10:46:13;;;;;;;3.53;1.00;;;14.40;99.90;;;;;;4970490;28;20238;-78
2021/01/28 10:48:39;;;;;;;3.63;1.00;;;14.80;99.90;;;;;;4969600;28;20274;-77
2021/01/28 10:51:06;;;;;;;3.20;1.00;;;15.00;99.90;;;;;;4968916;28;20779;-79
2021/01/28 10:53:36;;;;;;;3.93;1.00;;;15.10;99.90;;;;;;4969581;28;20737;-79
2021/01/28 10:56:02;;;;;;;3.10;1.00;;;15.10;99.90;;;;;;4969251;28;20286;-79
2021/01/28 10:58:29;;;;;;;2.33;1.10;;;15.00;99.90;;;;;;4969913;28;20279;-79
2021/01/28 11:00:56;;;;;;;3.00;1.13;;;15.00;99.90;;;;;;4969030;28;20234;-79
2021/01/28 11:03:22;;;;;;;2.30;1.10;;;14.90;99.90;;;;;;4968473;28;20245;-79
2021/01/28 11:06:01;;;;;;;;;;;;;;;;;;;;;
2021/01/28 11:08:28;;;;;;;2.23;1.10;;;14.80;99.90;;;;;;4969120;28;20684;-82
2021/01/28 11:10:56;;;;;;;5.60;1.07;;;15.10;99.90;;;;;;4968743;28;20202;-82
2021/01/28 11:13:22;;;;;;;3.23;1.10;;;15.40;99.90;;;;;;4970622;28;20254;-84
2021/01/28 11:15:49;;;;;;;4.43;1.20;;;15.60;99.90;;;;;;4968249;28;20201;-82
2021/01/28 11:18:16;;;;;;;3.17;1.00;;;15.90;99.90;;;;;;4977308;28;20254;-84
2021/01/28 11:20:42;;;;;;;3.40;1.30;;;15.90;99.90;;;;;;4972542;28;20207;-84
2021/01/28 11:23:09;;;;;;;1.93;1.03;;;15.80;99.90;;;;;;4972399;28;20206;-83
2021/01/28 11:25:36;;;;;;;4.67;1.37;;;15.50;99.90;;;;;;4970778;28;20218;-84
2021/01/28 11:28:04;;;;;;;2.10;0.90;;;15.30;99.90;;;;;;4972627;28;20202;-83
2021/01/28 11:30:33;;;;;;;3.80;1.43;;;15.10;99.90;;;;;;4972950;28;20217;-82
2021/01/28 11:33:00;;;;;;;3.03;1.37;;;15.00;99.90;;;;;;4971956;28;20297;-84
2021/01/28 11:35:30;;;;;;;2.37;1.10;;;15.00;99.90;;;;;;4972657;28;20222;-83
2021/01/28 11:37:57;;;;;;;2.13;1.10;;;15.40;99.90;;;;;;4972715;28;20237;-83
2021/01/28 11:40:26;;;;;;;2.73;1.20;;;15.50;99.90;;;;;;4973644;28;20203;-84
2021/01/28 11:42:53;;;;;;;2.10;1.00;;;15.40;99.90;;;;;;4972532;28;20202;-84
2021/01/28 11:45:23;;;;;;;2.07;0.83;;;15.40;99.90;;;;;;4972049;28;20277;-84
2021/01/28 11:47:49;;;;;;;2.00;1.03;;;15.40;99.90;;;;;;4972378;28;20230;-83
2021/01/28 11:50:17;;;;;;;3.27;0.90;;;15.30;99.90;;;;;;4972153;28;20221;-84
2021/01/28 11:52:44;;;;;;;1.83;0.70;;;15.40;99.90;;;;;;4973015;28;20202;-82
2021/01/28 11:55:14;;;;;;;3.03;1.10;;;15.30;99.90;;;;;;4970563;28;20223;-80
2021/01/28 11:57:41;;;;;;;1.77;0.97;;;15.00;99.90;;;;;;4972251;28;20278;-83
2021/01/28 12:00:09;;;;;;;2.70;1.60;;;14.80;99.90;;;;;;4973246;28;20226;-83
2021/01/28 12:02:36;;;;;;;2.23;1.40;;;14.60;99.90;;;;;;4972984;28;20202;-82
2021/01/28 12:05:03;;;;;;;2.97;1.73;;;14.60;99.90;;;;;;4971819;28;20264;-82
2021/01/28 12:07:30;;;;;;;2.77;1.80;;;14.60;99.90;;;;;;4971868;28;20721;-82
2021/01/28 12:09:57;;;;;;;3.50;1.60;;;14.50;99.90;;;;;;4971978;28;20577;-82
2021/01/28 12:12:23;;;;;;;3.53;1.30;;;14.50;99.90;;;;;;4971448;28;20554;-82
2021/01/28 12:14:49;;;;;;;4.10;1.37;;;14.30;99.90;;;;;;4971155;28;20254;-81
2021/01/28 12:17:16;;;;;;;4.03;1.60;;;14.20;99.90;;;;;;4971299;28;20720;-81
2021/01/28 12:19:43;;;;;;;6.37;2.23;;;14.10;99.90;;;;;;4998987;28;20210;-81
2021/01/28 12:22:10;;;;;;;5.70;1.93;;;14.10;99.90;;;;;;4971745;28;20201;-81
2021/01/28 12:24:36;;;;;;;6.17;1.80;;;14.20;99.90;;;;;;4971674;28;20569;-81
2021/01/28 12:30:23;;;;;;;3.83;1.90;;;14.30;99.90;;;;;;4991395;28;20207;-80
2021/01/28 12:32:49;;;;;;;5.07;2.00;;;14.60;99.90;;;;;;4969696;28;20225;-81
2021/01/28 12:35:18;;;;;;;4.13;2.30;;;14.80;99.90;;;;;;4971001;28;20277;-81
2021/01/28 12:37:45;;;;;;;3.57;1.53;;;14.80;99.90;;;;;;4969810;28;20287;-81
2021/01/28 12:40:15;;;;;;;5.73;2.00;;;14.70;99.90;;;;;;4966295;28;20671;-81
2021/01/28 12:42:42;;;;;;;5.20;2.07;;;14.70;99.90;;;;;;4970094;28;20198;-81
2021/01/28 12:45:09;;;;;;;4.00;1.50;;;14.60;99.90;;;;;;4970698;28;20206;-81
2021/01/28 12:47:36;;;;;;;3.80;1.40;;;14.60;99.90;;;;;;4969904;28;20238;-81
2021/01/28 12:50:03;;;;;;;3.10;1.40;;;14.50;99.90;;;;;;4967889;28;20690;-81
2021/01/28 12:52:31;;;;;;;3.10;1.40;;;14.50;99.90;;;;;;4971138;28;20226;-81
2021/01/28 12:54:57;;;;;;;2.00;1.00;;;14.60;99.90;;;;;;4978561;28;20269;-81
2021/01/28 12:57:23;;;;;;;1.23;0.90;;;14.60;99.90;;;;;;4981852;28;20207;-81
2021/01/28 12:59:50;;;;;;;2.20;1.00;;;14.60;99.90;;;;;;4970402;28;20294;-81
2021/01/28 13:02:16;;;;;;;1.43;1.00;;;14.70;99.90;;;;;;5007306;28;20688;-81
2021/01/28 13:04:43;;;;;;;3.33;1.30;;;14.50;99.90;;;;;;4970234;28;20199;-81
2021/01/28 13:07:09;;;;;;;2.63;1.10;;;14.50;99.90;;;;;;4971158;28;20199;-82
2021/01/28 13:09:36;;;;;;;2.83;1.23;;;14.50;99.90;;;;;;4982667;28;20206;-82